sensor_id;sensor_type;location;lat;lon;timestamp;temperature;humidity
11812;DHT22;5963;50.184;9.162;2023-04-29T00:02:22;11.90;99.90
11812;DHT22;5963;50.184;9.162;2023-04-29T00:04:51;11.80;99.90
11812;DHT22;5963;50.184;9.162;2023-04-29T00:07:20;11.90;99.90
11812;DHT22;5963;50.184;9.162;2023-04-29T00:09:49;11.80;99.90
11812;DHT22;5963;50.184;9.162;2023-04-29T00:12:19;11.70;99.90
11812;DHT22;5963;50.184;9.162;2023-04-29T00:14:47;11.60;99.90
11812;DHT22;5963;50.184;9.162;2023-04-29T00:17:17;11.60;99.90
11812;DHT22;5963;50.184;9.162;2023-04-29T00:19:47;11.50;99.90
11812;DHT22;5963;50.184;9.162;2023-04-29T00:22:16;11.40;99.90
11812;DHT22;5963;50.184;9.162;2023-04-29T00:24:45;11.40;99.90
11812;DHT22;5963;50.184;9.162;2023-04-29T00:27:14;11.40;99.90
11812;DHT22;5963;50.184;9.162;2023-04-29T00:29:42;11.50;99.90
11812;DHT22;5963;50.184;9.162;2023-04-29T00:32:10;11.50;99.90
11812;DHT22;5963;50.184;9.162;2023-04-29T00:34:38;11.40;99.90
11812;DHT22;5963;50.184;9.162;2023-04-29T00:37:09;11.30;99.90
11812;DHT22;5963;50.184;9.162;2023-04-29T00:39:37;11.30;99.90
11812;DHT22;5963;50.184;9.162;2023-04-29T00:42:05;11.30;99.90
11812;DHT22;5963;50.184;9.162;2023-04-29T00:44:35;11.30;99.90
11812;DHT22;5963;50.184;9.162;2023-04-29T00:47:03;11.20;99.90
11812;DHT22;5963;50.184;9.162;2023-04-29T00:49:31;11.20;99.90
11812;DHT22;5963;50.184;9.162;2023-04-29T00:51:59;11.30;99.90
11812;DHT22;5963;50.184;9.162;2023-04-29T00:54:27;11.20;99.90
11812;DHT22;5963;50.184;9.162;2023-04-29T00:56:56;11.20;99.90
11812;DHT22;5963;50.184;9.162;2023-04-29T00:59:28;11.20;99.90
11812;DHT22;5963;50.184;9.162;2023-04-29T01:02:00;11.20;99.90
11812;DHT22;5963;50.184;9.162;2023-04-29T01:04:28;11.20;99.90
11812;DHT22;5963;50.184;9.162;2023-04-29T01:07:03;11.10;99.90
11812;DHT22;5963;50.184;9.162;2023-04-29T01:09:54;11.20;99.90
11812;DHT22;5963;50.184;9.162;2023-04-29T01:12:39;11.10;99.90
11812;DHT22;5963;50.184;9.162;2023-04-29T01:15:15;11.10;99.90
11812;DHT22;5963;50.184;9.162;2023-04-29T01:17:49;11.10;99.90
11812;DHT22;5963;50.184;9.162;2023-04-29T01:20:18;11.00;99.90
11812;DHT22;5963;50.184;9.162;2023-04-29T01:22:47;11.00;99.90
11812;DHT22;5963;50.184;9.162;2023-04-29T01:25:17;11.00;99.90
11812;DHT22;5963;50.184;9.162;2023-04-29T01:27:51;11.00;99.90
11812;DHT22;5963;50.184;9.162;2023-04-29T01:30:31;10.90;99.90
11812;DHT22;5963;50.184;9.162;2023-04-29T01:33:07;10.80;99.90
11812;DHT22;5963;50.184;9.162;2023-04-29T01:35:44;10.70;99.90
11812;DHT22;5963;50.184;9.162;2023-04-29T01:38:25;10.70;99.90
11812;DHT22;5963;50.184;9.162;2023-04-29T01:41:09;10.70;99.90
11812;DHT22;5963;50.184;9.162;2023-04-29T01:43:37;10.60;99.90
11812;DHT22;5963;50.184;9.162;2023-04-29T01:46:08;10.60;99.90
11812;DHT22;5963;50.184;9.162;2023-04-29T01:48:38;10.60;99.90
11812;DHT22;5963;50.184;9.162;2023-04-29T01:51:06;10.50;99.90
11812;DHT22;5963;50.184;9.162;2023-04-29T01:53:37;10.50;99.90
11812;DHT22;5963;50.184;9.162;2023-04-29T01:56:07;10.50;99.90
11812;DHT22;5963;50.184;9.162;2023-04-29T01:58:35;10.50;99.90
11812;DHT22;5963;50.184;9.162;2023-04-29T02:01:03;10.50;99.90
11812;DHT22;5963;50.184;9.162;2023-04-29T02:03:31;10.40;99.90
11812;DHT22;5963;50.184;9.162;2023-04-29T02:06:00;10.40;99.90
11812;DHT22;5963;50.184;9.162;2023-04-29T02:08:28;10.50;99.90
11812;DHT22;5963;50.184;9.162;2023-04-29T02:10:57;10.50;99.90
11812;DHT22;5963;50.184;9.162;2023-04-29T02:13:26;10.60;99.90
11812;DHT22;5963;50.184;9.162;2023-04-29T02:15:54;10.70;99.90
11812;DHT22;5963;50.184;9.162;2023-04-29T02:18:22;10.80;99.90
11812;DHT22;5963;50.184;9.162;2023-04-29T02:20:50;10.80;99.90
11812;DHT22;5963;50.184;9.162;2023-04-29T02:23:19;10.80;99.90
11812;DHT22;5963;50.184;9.162;2023-04-29T02:25:47;10.70;99.90
11812;DHT22;5963;50.184;9.162;2023-04-29T02:28:15;10.60;99.90
11812;DHT22;5963;50.184;9.162;2023-04-29T02:30:44;10.50;99.90
11812;DHT22;5963;50.184;9.162;2023-04-29T02:33:12;10.40;99.90
11812;DHT22;5963;50.184;9.162;2023-04-29T02:35:40;10.40;99.90
11812;DHT22;5963;50.184;9.162;2023-04-29T02:38:08;10.40;99.90
11812;DHT22;5963;50.184;9.162;2023-04-29T02:40:40;10.40;99.90
11812;DHT22;5963;50.184;9.162;2023-04-29T02:43:08;10.40;99.90
11812;DHT22;5963;50.184;9.162;2023-04-29T02:45:37;10.50;99.90
11812;DHT22;5963;50.184;9.162;2023-04-29T02:48:06;10.70;99.90
11812;DHT22;5963;50.184;9.162;2023-04-29T02:50:34;10.80;99.90
11812;DHT22;5963;50.184;9.162;2023-04-29T02:53:02;10.90;99.90
11812;DHT22;5963;50.184;9.162;2023-04-29T02:55:30;10.90;99.90
11812;DHT22;5963;50.184;9.162;2023-04-29T02:57:58;10.90;99.90
11812;DHT22;5963;50.184;9.162;2023-04-29T03:00:26;10.90;99.90
11812;DHT22;5963;50.184;9.162;2023-04-29T03:02:54;11.00;99.90
11812;DHT22;5963;50.184;9.162;2023-04-29T03:05:24;11.10;99.90
11812;DHT22;5963;50.184;9.162;2023-04-29T03:07:52;11.20;99.90
11812;DHT22;5963;50.184;9.162;2023-04-29T03:10:21;11.20;99.90
11812;DHT22;5963;50.184;9.162;2023-04-29T03:12:48;11.20;99.90
11812;DHT22;5963;50.184;9.162;2023-04-29T03:15:16;11.30;99.90
11812;DHT22;5963;50.184;9.162;2023-04-29T03:17:45;11.30;99.90
11812;DHT22;5963;50.184;9.162;2023-04-29T03:20:14;11.30;99.90
11812;DHT22;5963;50.184;9.162;2023-04-29T03:22:43;11.30;99.90
11812;DHT22;5963;50.184;9.162;2023-04-29T03:25:11;11.30;99.90
11812;DHT22;5963;50.184;9.162;2023-04-29T03:27:39;11.30;99.90
11812;DHT22;5963;50.184;9.162;2023-04-29T03:30:08;11.30;99.90
11812;DHT22;5963;50.184;9.162;2023-04-29T03:32:36;11.30;99.90
11812;DHT22;5963;50.184;9.162;2023-04-29T03:35:04;11.40;99.90
11812;DHT22;5963;50.184;9.162;2023-04-29T03:37:32;11.30;99.90
11812;DHT22;5963;50.184;9.162;2023-04-29T03:40:02;11.30;99.90
11812;DHT22;5963;50.184;9.162;2023-04-29T03:42:30;11.20;99.90
11812;DHT22;5963;50.184;9.162;2023-04-29T03:44:58;11.30;99.90
11812;DHT22;5963;50.184;9.162;2023-04-29T03:47:27;11.30;99.90
11812;DHT22;5963;50.184;9.162;2023-04-29T03:49:55;11.30;99.90
11812;DHT22;5963;50.184;9.162;2023-04-29T03:52:23;11.30;99.90
11812;DHT22;5963;50.184;9.162;2023-04-29T03:54:51;11.30;99.90
11812;DHT22;5963;50.184;9.162;2023-04-29T03:57:20;11.30;99.90
11812;DHT22;5963;50.184;9.162;2023-04-29T03:59:48;11.40;99.90
11812;DHT22;5963;50.184;9.162;2023-04-29T04:02:17;11.50;99.90
11812;DHT22;5963;50.184;9.162;2023-04-29T04:04:48;11.50;99.90
11812;DHT22;5963;50.184;9.162;2023-04-29T04:07:16;11.50;99.90
11812;DHT22;5963;50.184;9.162;2023-04-29T04:09:44;11.50;99.90
11812;DHT22;5963;50.184;9.162;2023-04-29T04:12:12;11.40;99.90
11812;DHT22;5963;50.184;9.162;2023-04-29T04:14:45;11.50;99.90
11812;DHT22;5963;50.184;9.162;2023-04-29T04:17:13;11.50;99.90
11812;DHT22;5963;50.184;9.162;2023-04-29T04:19:41;11.50;99.90
11812;DHT22;5963;50.184;9.162;2023-04-29T04:22:09;11.50;99.90
11812;DHT22;5963;50.184;9.162;2023-04-29T04:24:38;11.50;99.90
11812;DHT22;5963;50.184;9.162;2023-04-29T04:27:06;11.50;99.90
11812;DHT22;5963;50.184;9.162;2023-04-29T04:29:34;11.50;99.90
11812;DHT22;5963;50.184;9.162;2023-04-29T04:32:04;11.60;99.90
11812;DHT22;5963;50.184;9.162;2023-04-29T04:34:32;11.60;99.90
11812;DHT22;5963;50.184;9.162;2023-04-29T04:37:00;11.60;99.90
11812;DHT22;5963;50.184;9.162;2023-04-29T04:39:28;11.60;99.90
11812;DHT22;5963;50.184;9.162;2023-04-29T04:41:56;11.60;99.90
11812;DHT22;5963;50.184;9.162;2023-04-29T04:44:23;11.60;99.90
11812;DHT22;5963;50.184;9.162;2023-04-29T04:46:51;11.60;99.90
11812;DHT22;5963;50.184;9.162;2023-04-29T04:49:22;11.60;99.90
11812;DHT22;5963;50.184;9.162;2023-04-29T04:51:50;11.60;99.90
11812;DHT22;5963;50.184;9.162;2023-04-29T04:54:18;11.60;99.90
11812;DHT22;5963;50.184;9.162;2023-04-29T04:56:46;11.60;99.90
11812;DHT22;5963;50.184;9.162;2023-04-29T04:59:17;11.60;99.90
11812;DHT22;5963;50.184;9.162;2023-04-29T05:01:45;11.60;99.90
11812;DHT22;5963;50.184;9.162;2023-04-29T05:04:15;11.70;99.90
11812;DHT22;5963;50.184;9.162;2023-04-29T05:06:45;11.70;99.90
11812;DHT22;5963;50.184;9.162;2023-04-29T05:09:14;11.70;99.90
11812;DHT22;5963;50.184;9.162;2023-04-29T05:11:42;11.80;99.90
11812;DHT22;5963;50.184;9.162;2023-04-29T05:14:10;12.10;99.90
11812;DHT22;5963;50.184;9.162;2023-04-29T05:16:38;12.20;99.90
11812;DHT22;5963;50.184;9.162;2023-04-29T05:19:06;12.40;99.90
11812;DHT22;5963;50.184;9.162;2023-04-29T05:21:35;12.50;99.90
11812;DHT22;5963;50.184;9.162;2023-04-29T05:24:05;12.80;99.90
11812;DHT22;5963;50.184;9.162;2023-04-29T05:26:33;13.30;99.90
11812;DHT22;5963;50.184;9.162;2023-04-29T05:29:01;14.20;99.90
11812;DHT22;5963;50.184;9.162;2023-04-29T05:31:29;14.80;99.90
11812;DHT22;5963;50.184;9.162;2023-04-29T05:33:56;14.70;99.90
11812;DHT22;5963;50.184;9.162;2023-04-29T05:36:28;14.90;99.90
11812;DHT22;5963;50.184;9.162;2023-04-29T05:38:56;14.70;99.90
11812;DHT22;5963;50.184;9.162;2023-04-29T05:41:25;15.60;99.90
11812;DHT22;5963;50.184;9.162;2023-04-29T05:43:53;15.90;99.90
11812;DHT22;5963;50.184;9.162;2023-04-29T05:46:21;15.80;99.90
11812;DHT22;5963;50.184;9.162;2023-04-29T05:48:51;15.90;99.90
11812;DHT22;5963;50.184;9.162;2023-04-29T05:51:18;15.80;99.90
11812;DHT22;5963;50.184;9.162;2023-04-29T05:53:47;16.00;99.90
11812;DHT22;5963;50.184;9.162;2023-04-29T05:56:14;16.60;99.90
11812;DHT22;5963;50.184;9.162;2023-04-29T05:58:45;17.40;99.90
11812;DHT22;5963;50.184;9.162;2023-04-29T06:01:12;17.70;99.90
11812;DHT22;5963;50.184;9.162;2023-04-29T06:03:40;18.10;99.90
11812;DHT22;5963;50.184;9.162;2023-04-29T06:06:09;17.70;99.90
11812;DHT22;5963;50.184;9.162;2023-04-29T06:08:37;17.50;99.90
11812;DHT22;5963;50.184;9.162;2023-04-29T06:11:05;17.00;99.90
11812;DHT22;5963;50.184;9.162;2023-04-29T06:13:33;15.80;99.90
11812;DHT22;5963;50.184;9.162;2023-04-29T06:16:03;15.20;99.90
11812;DHT22;5963;50.184;9.162;2023-04-29T06:18:31;14.80;99.90
11812;DHT22;5963;50.184;9.162;2023-04-29T06:20:59;14.20;99.90
11812;DHT22;5963;50.184;9.162;2023-04-29T06:23:29;14.10;99.90
11812;DHT22;5963;50.184;9.162;2023-04-29T06:25:58;14.00;99.90
11812;DHT22;5963;50.184;9.162;2023-04-29T06:28:26;14.00;99.90
11812;DHT22;5963;50.184;9.162;2023-04-29T06:30:55;13.90;99.90
11812;DHT22;5963;50.184;9.162;2023-04-29T06:33:25;13.90;99.90
11812;DHT22;5963;50.184;9.162;2023-04-29T06:35:53;13.90;99.90
11812;DHT22;5963;50.184;9.162;2023-04-29T06:38:21;13.70;99.90
11812;DHT22;5963;50.184;9.162;2023-04-29T06:40:49;13.60;99.90
11812;DHT22;5963;50.184;9.162;2023-04-29T06:43:17;13.50;99.90
11812;DHT22;5963;50.184;9.162;2023-04-29T06:45:45;13.30;99.90
11812;DHT22;5963;50.184;9.162;2023-04-29T06:48:13;13.10;99.90
11812;DHT22;5963;50.184;9.162;2023-04-29T06:50:49;13.00;99.90
11812;DHT22;5963;50.184;9.162;2023-04-29T06:53:17;13.00;99.90
11812;DHT22;5963;50.184;9.162;2023-04-29T06:55:45;13.10;99.90
11812;DHT22;5963;50.184;9.162;2023-04-29T06:58:14;13.00;99.90
11812;DHT22;5963;50.184;9.162;2023-04-29T07:00:44;13.00;99.90
11812;DHT22;5963;50.184;9.162;2023-04-29T07:03:12;12.80;99.90
11812;DHT22;5963;50.184;9.162;2023-04-29T07:05:40;12.80;99.90
11812;DHT22;5963;50.184;9.162;2023-04-29T07:08:12;12.60;99.90
11812;DHT22;5963;50.184;9.162;2023-04-29T07:10:40;12.60;99.90
11812;DHT22;5963;50.184;9.162;2023-04-29T07:13:08;12.70;99.90
11812;DHT22;5963;50.184;9.162;2023-04-29T07:15:36;12.60;99.90
11812;DHT22;5963;50.184;9.162;2023-04-29T07:18:05;12.60;99.90
11812;DHT22;5963;50.184;9.162;2023-04-29T07:20:35;12.60;99.90
11812;DHT22;5963;50.184;9.162;2023-04-29T07:23:03;12.60;99.90
11812;DHT22;5963;50.184;9.162;2023-04-29T07:25:35;12.70;99.90
11812;DHT22;5963;50.184;9.162;2023-04-29T07:28:03;12.70;99.90
11812;DHT22;5963;50.184;9.162;2023-04-29T07:30:31;12.70;99.90
11812;DHT22;5963;50.184;9.162;2023-04-29T07:33:01;12.70;99.90
11812;DHT22;5963;50.184;9.162;2023-04-29T07:35:32;12.70;99.90
11812;DHT22;5963;50.184;9.162;2023-04-29T07:37:59;12.70;99.90
11812;DHT22;5963;50.184;9.162;2023-04-29T07:40:27;12.90;99.90
11812;DHT22;5963;50.184;9.162;2023-04-29T07:43:00;12.90;99.90
11812;DHT22;5963;50.184;9.162;2023-04-29T07:45:31;12.90;99.90
11812;DHT22;5963;50.184;9.162;2023-04-29T07:47:59;13.00;99.90
11812;DHT22;5963;50.184;9.162;2023-04-29T07:50:27;13.00;99.90
11812;DHT22;5963;50.184;9.162;2023-04-29T07:52:55;12.90;99.90
11812;DHT22;5963;50.184;9.162;2023-04-29T07:55:23;12.90;99.90
11812;DHT22;5963;50.184;9.162;2023-04-29T07:57:52;12.70;99.90
11812;DHT22;5963;50.184;9.162;2023-04-29T08:00:24;12.70;99.90
11812;DHT22;5963;50.184;9.162;2023-04-29T08:02:54;12.70;99.90
11812;DHT22;5963;50.184;9.162;2023-04-29T08:05:23;12.80;99.90
11812;DHT22;5963;50.184;9.162;2023-04-29T08:07:52;12.90;99.90
11812;DHT22;5963;50.184;9.162;2023-04-29T08:10:22;13.00;99.90
11812;DHT22;5963;50.184;9.162;2023-04-29T08:12:50;13.10;99.90
11812;DHT22;5963;50.184;9.162;2023-04-29T08:15:18;13.10;99.90
11812;DHT22;5963;50.184;9.162;2023-04-29T08:17:48;13.00;99.90
11812;DHT22;5963;50.184;9.162;2023-04-29T08:20:16;13.00;99.90
11812;DHT22;5963;50.184;9.162;2023-04-29T08:22:44;13.10;99.90
11812;DHT22;5963;50.184;9.162;2023-04-29T08:25:11;13.10;99.90
11812;DHT22;5963;50.184;9.162;2023-04-29T08:27:40;13.10;99.90
11812;DHT22;5963;50.184;9.162;2023-04-29T08:30:09;13.10;99.90
11812;DHT22;5963;50.184;9.162;2023-04-29T08:32:37;13.00;99.90
11812;DHT22;5963;50.184;9.162;2023-04-29T08:35:07;13.20;99.90
11812;DHT22;5963;50.184;9.162;2023-04-29T08:37:35;13.20;99.90
11812;DHT22;5963;50.184;9.162;2023-04-29T08:40:04;13.10;99.90
11812;DHT22;5963;50.184;9.162;2023-04-29T08:42:34;13.10;99.90
11812;DHT22;5963;50.184;9.162;2023-04-29T08:45:03;13.10;99.90
11812;DHT22;5963;50.184;9.162;2023-04-29T08:47:32;13.10;99.90
11812;DHT22;5963;50.184;9.162;2023-04-29T08:50:04;13.20;99.90
11812;DHT22;5963;50.184;9.162;2023-04-29T08:52:34;13.30;99.90
11812;DHT22;5963;50.184;9.162;2023-04-29T08:55:02;13.20;99.90
11812;DHT22;5963;50.184;9.162;2023-04-29T08:57:35;13.30;99.90
11812;DHT22;5963;50.184;9.162;2023-04-29T09:00:06;13.40;99.90
11812;DHT22;5963;50.184;9.162;2023-04-29T09:02:42;13.40;99.90
11812;DHT22;5963;50.184;9.162;2023-04-29T09:05:12;13.40;99.90
11812;DHT22;5963;50.184;9.162;2023-04-29T09:07:43;13.40;99.90
11812;DHT22;5963;50.184;9.162;2023-04-29T09:10:13;13.40;99.90
11812;DHT22;5963;50.184;9.162;2023-04-29T09:12:41;13.40;99.90
11812;DHT22;5963;50.184;9.162;2023-04-29T09:15:10;13.40;99.90
11812;DHT22;5963;50.184;9.162;2023-04-29T09:17:42;13.30;99.90
11812;DHT22;5963;50.184;9.162;2023-04-29T09:20:29;13.10;99.90
11812;DHT22;5963;50.184;9.162;2023-04-29T09:23:00;13.10;99.90
11812;DHT22;5963;50.184;9.162;2023-04-29T09:25:29;13.10;99.90
11812;DHT22;5963;50.184;9.162;2023-04-29T09:27:58;13.00;99.90
11812;DHT22;5963;50.184;9.162;2023-04-29T09:30:44;13.00;99.90
11812;DHT22;5963;50.184;9.162;2023-04-29T09:33:13;13.00;99.90
11812;DHT22;5963;50.184;9.162;2023-04-29T09:35:43;13.10;99.90
11812;DHT22;5963;50.184;9.162;2023-04-29T09:38:15;13.20;99.90
11812;DHT22;5963;50.184;9.162;2023-04-29T09:40:43;13.30;99.90
11812;DHT22;5963;50.184;9.162;2023-04-29T09:43:25;13.30;99.90
11812;DHT22;5963;50.184;9.162;2023-04-29T09:45:53;13.20;99.90
11812;DHT22;5963;50.184;9.162;2023-04-29T09:48:21;13.20;99.90
11812;DHT22;5963;50.184;9.162;2023-04-29T09:50:59;13.30;99.90
11812;DHT22;5963;50.184;9.162;2023-04-29T09:53:29;13.30;99.90
11812;DHT22;5963;50.184;9.162;2023-04-29T09:55:59;13.40;99.90
11812;DHT22;5963;50.184;9.162;2023-04-29T09:58:28;13.30;99.90
11812;DHT22;5963;50.184;9.162;2023-04-29T10:00:58;13.50;99.90
11812;DHT22;5963;50.184;9.162;2023-04-29T10:03:32;13.70;99.90
11812;DHT22;5963;50.184;9.162;2023-04-29T10:06:02;13.80;99.90
11812;DHT22;5963;50.184;9.162;2023-04-29T10:08:32;14.00;99.90
11812;DHT22;5963;50.184;9.162;2023-04-29T10:11:01;14.10;99.90
11812;DHT22;5963;50.184;9.162;2023-04-29T10:13:30;14.10;99.90
11812;DHT22;5963;50.184;9.162;2023-04-29T10:16:10;14.10;99.90
11812;DHT22;5963;50.184;9.162;2023-04-29T10:18:48;14.10;99.90
11812;DHT22;5963;50.184;9.162;2023-04-29T10:21:17;14.30;99.90
11812;DHT22;5963;50.184;9.162;2023-04-29T10:23:49;14.50;99.90
11812;DHT22;5963;50.184;9.162;2023-04-29T10:26:18;14.50;99.90
11812;DHT22;5963;50.184;9.162;2023-04-29T10:28:50;14.80;99.90
11812;DHT22;5963;50.184;9.162;2023-04-29T10:31:19;15.10;99.90
11812;DHT22;5963;50.184;9.162;2023-04-29T10:33:48;15.40;99.90
11812;DHT22;5963;50.184;9.162;2023-04-29T10:36:17;15.70;99.90
11812;DHT22;5963;50.184;9.162;2023-04-29T10:38:49;15.90;99.90
11812;DHT22;5963;50.184;9.162;2023-04-29T10:41:20;16.00;99.90
11812;DHT22;5963;50.184;9.162;2023-04-29T10:43:52;16.20;99.90
11812;DHT22;5963;50.184;9.162;2023-04-29T10:46:23;16.60;99.90
11812;DHT22;5963;50.184;9.162;2023-04-29T10:48:56;17.00;99.90
11812;DHT22;5963;50.184;9.162;2023-04-29T10:51:29;17.10;99.90
11812;DHT22;5963;50.184;9.162;2023-04-29T10:54:01;16.90;99.90
11812;DHT22;5963;50.184;9.162;2023-04-29T10:56:36;16.60;99.90
11812;DHT22;5963;50.184;9.162;2023-04-29T10:59:05;16.40;99.90
11812;DHT22;5963;50.184;9.162;2023-04-29T11:01:46;16.60;99.90
11812;DHT22;5963;50.184;9.162;2023-04-29T11:04:16;16.60;99.90
11812;DHT22;5963;50.184;9.162;2023-04-29T11:06:46;16.80;99.90
11812;DHT22;5963;50.184;9.162;2023-04-29T11:09:18;16.60;99.90
11812;DHT22;5963;50.184;9.162;2023-04-29T11:11:54;16.50;99.90
11812;DHT22;5963;50.184;9.162;2023-04-29T11:14:27;16.30;99.90
11812;DHT22;5963;50.184;9.162;2023-04-29T11:16:57;16.50;99.90
11812;DHT22;5963;50.184;9.162;2023-04-29T11:19:30;16.70;99.90
11812;DHT22;5963;50.184;9.162;2023-04-29T11:22:12;16.80;99.90
11812;DHT22;5963;50.184;9.162;2023-04-29T11:24:53;16.80;99.90
11812;DHT22;5963;50.184;9.162;2023-04-29T11:27:23;16.70;99.90
11812;DHT22;5963;50.184;9.162;2023-04-29T11:29:52;16.60;99.90
11812;DHT22;5963;50.184;9.162;2023-04-29T11:32:25;16.40;99.90
11812;DHT22;5963;50.184;9.162;2023-04-29T11:35:06;16.10;99.90
11812;DHT22;5963;50.184;9.162;2023-04-29T11:37:35;15.80;99.90
11812;DHT22;5963;50.184;9.162;2023-04-29T11:40:07;15.70;99.90
11812;DHT22;5963;50.184;9.162;2023-04-29T11:42:40;15.80;99.90
11812;DHT22;5963;50.184;9.162;2023-04-29T11:45:09;15.70;99.90
11812;DHT22;5963;50.184;9.162;2023-04-29T11:47:41;15.50;99.90
11812;DHT22;5963;50.184;9.162;2023-04-29T11:50:11;15.30;99.90
11812;DHT22;5963;50.184;9.162;2023-04-29T11:52:39;15.20;99.90
11812;DHT22;5963;50.184;9.162;2023-04-29T11:55:09;15.20;99.90
11812;DHT22;5963;50.184;9.162;2023-04-29T11:57:38;15.20;99.90
11812;DHT22;5963;50.184;9.162;2023-04-29T12:00:08;15.30;99.90
11812;DHT22;5963;50.184;9.162;2023-04-29T12:02:37;15.20;99.90
11812;DHT22;5963;50.184;9.162;2023-04-29T12:05:06;15.10;99.90
11812;DHT22;5963;50.184;9.162;2023-04-29T12:07:35;15.20;99.90
11812;DHT22;5963;50.184;9.162;2023-04-29T12:10:09;15.40;99.90
11812;DHT22;5963;50.184;9.162;2023-04-29T12:12:38;15.50;99.90
11812;DHT22;5963;50.184;9.162;2023-04-29T12:15:11;15.50;99.90
11812;DHT22;5963;50.184;9.162;2023-04-29T12:17:41;15.40;99.90
11812;DHT22;5963;50.184;9.162;2023-04-29T12:20:12;15.40;99.90
11812;DHT22;5963;50.184;9.162;2023-04-29T12:22:41;15.40;99.90
11812;DHT22;5963;50.184;9.162;2023-04-29T12:25:11;15.30;99.90
11812;DHT22;5963;50.184;9.162;2023-04-29T12:27:39;15.30;99.90
11812;DHT22;5963;50.184;9.162;2023-04-29T12:30:09;15.30;99.90
11812;DHT22;5963;50.184;9.162;2023-04-29T12:32:37;15.20;99.90
11812;DHT22;5963;50.184;9.162;2023-04-29T12:35:13;15.00;99.90
11812;DHT22;5963;50.184;9.162;2023-04-29T12:37:42;15.00;99.90
11812;DHT22;5963;50.184;9.162;2023-04-29T12:40:14;15.10;99.90
11812;DHT22;5963;50.184;9.162;2023-04-29T12:42:43;14.90;99.90
11812;DHT22;5963;50.184;9.162;2023-04-29T12:45:28;14.90;99.90
11812;DHT22;5963;50.184;9.162;2023-04-29T12:47:57;14.80;99.90
11812;DHT22;5963;50.184;9.162;2023-04-29T12:50:30;14.80;99.90
11812;DHT22;5963;50.184;9.162;2023-04-29T12:52:59;14.70;99.90
11812;DHT22;5963;50.184;9.162;2023-04-29T12:55:28;14.60;99.90
11812;DHT22;5963;50.184;9.162;2023-04-29T12:57:56;14.60;99.90
11812;DHT22;5963;50.184;9.162;2023-04-29T13:00:26;14.70;99.90
11812;DHT22;5963;50.184;9.162;2023-04-29T13:02:54;14.80;99.90
11812;DHT22;5963;50.184;9.162;2023-04-29T13:05:22;14.90;99.90
11812;DHT22;5963;50.184;9.162;2023-04-29T13:07:51;15.00;99.90
11812;DHT22;5963;50.184;9.162;2023-04-29T13:10:22;14.90;99.90
11812;DHT22;5963;50.184;9.162;2023-04-29T13:12:52;15.10;99.90
11812;DHT22;5963;50.184;9.162;2023-04-29T13:15:20;15.30;99.90
11812;DHT22;5963;50.184;9.162;2023-04-29T13:17:48;15.10;99.90
11812;DHT22;5963;50.184;9.162;2023-04-29T13:20:17;15.30;99.90
11812;DHT22;5963;50.184;9.162;2023-04-29T13:22:47;15.40;99.90
11812;DHT22;5963;50.184;9.162;2023-04-29T13:25:16;15.50;99.90
11812;DHT22;5963;50.184;9.162;2023-04-29T13:27:44;15.80;99.90
11812;DHT22;5963;50.184;9.162;2023-04-29T13:30:13;16.00;99.90
11812;DHT22;5963;50.184;9.162;2023-04-29T13:32:43;16.10;99.90
11812;DHT22;5963;50.184;9.162;2023-04-29T13:35:20;16.10;99.90
11812;DHT22;5963;50.184;9.162;2023-04-29T13:37:48;15.30;99.90
11812;DHT22;5963;50.184;9.162;2023-04-29T13:40:16;15.40;99.90
11812;DHT22;5963;50.184;9.162;2023-04-29T13:42:49;15.50;99.90
11812;DHT22;5963;50.184;9.162;2023-04-29T13:45:33;15.30;99.90
11812;DHT22;5963;50.184;9.162;2023-04-29T13:48:06;15.40;99.90
11812;DHT22;5963;50.184;9.162;2023-04-29T13:50:54;15.40;99.90
11812;DHT22;5963;50.184;9.162;2023-04-29T13:53:45;15.30;99.90
11812;DHT22;5963;50.184;9.162;2023-04-29T13:56:16;15.30;99.90
11812;DHT22;5963;50.184;9.162;2023-04-29T13:58:47;15.20;99.90
11812;DHT22;5963;50.184;9.162;2023-04-29T14:01:20;15.20;99.90
11812;DHT22;5963;50.184;9.162;2023-04-29T14:03:52;15.20;99.90
11812;DHT22;5963;50.184;9.162;2023-04-29T14:06:21;15.10;99.90
11812;DHT22;5963;50.184;9.162;2023-04-29T14:08:49;15.10;99.90
11812;DHT22;5963;50.184;9.162;2023-04-29T14:11:17;15.20;99.90
11812;DHT22;5963;50.184;9.162;2023-04-29T14:13:45;15.20;99.90
11812;DHT22;5963;50.184;9.162;2023-04-29T14:16:15;15.20;99.90
11812;DHT22;5963;50.184;9.162;2023-04-29T14:18:45;15.20;99.90
11812;DHT22;5963;50.184;9.162;2023-04-29T14:21:13;15.30;99.90
11812;DHT22;5963;50.184;9.162;2023-04-29T14:23:41;15.20;99.90
11812;DHT22;5963;50.184;9.162;2023-04-29T14:26:11;15.10;99.90
11812;DHT22;5963;50.184;9.162;2023-04-29T14:28:54;15.10;99.90
11812;DHT22;5963;50.184;9.162;2023-04-29T14:31:24;15.10;99.90
11812;DHT22;5963;50.184;9.162;2023-04-29T14:33:55;15.00;99.90
11812;DHT22;5963;50.184;9.162;2023-04-29T14:36:23;15.00;99.90
11812;DHT22;5963;50.184;9.162;2023-04-29T14:38:52;15.00;99.90
11812;DHT22;5963;50.184;9.162;2023-04-29T14:41:20;15.00;99.90
11812;DHT22;5963;50.184;9.162;2023-04-29T14:43:48;15.00;99.90
11812;DHT22;5963;50.184;9.162;2023-04-29T14:46:16;15.00;99.90
11812;DHT22;5963;50.184;9.162;2023-04-29T14:48:44;14.90;99.90
11812;DHT22;5963;50.184;9.162;2023-04-29T14:51:14;14.90;99.90
11812;DHT22;5963;50.184;9.162;2023-04-29T14:53:43;14.80;99.90
11812;DHT22;5963;50.184;9.162;2023-04-29T14:56:11;14.80;99.90
11812;DHT22;5963;50.184;9.162;2023-04-29T14:58:40;14.80;99.90
11812;DHT22;5963;50.184;9.162;2023-04-29T15:01:07;14.80;99.90
11812;DHT22;5963;50.184;9.162;2023-04-29T15:03:36;14.80;99.90
11812;DHT22;5963;50.184;9.162;2023-04-29T15:06:10;14.80;99.90
11812;DHT22;5963;50.184;9.162;2023-04-29T15:08:39;14.80;99.90
11812;DHT22;5963;50.184;9.162;2023-04-29T15:11:07;14.70;99.90
11812;DHT22;5963;50.184;9.162;2023-04-29T15:13:35;14.70;99.90
11812;DHT22;5963;50.184;9.162;2023-04-29T15:16:04;14.70;99.90
11812;DHT22;5963;50.184;9.162;2023-04-29T15:18:33;14.80;99.90
11812;DHT22;5963;50.184;9.162;2023-04-29T15:21:02;14.80;99.90
11812;DHT22;5963;50.184;9.162;2023-04-29T15:23:30;14.80;99.90
11812;DHT22;5963;50.184;9.162;2023-04-29T15:26:03;14.80;99.90
11812;DHT22;5963;50.184;9.162;2023-04-29T15:28:32;14.90;99.90
11812;DHT22;5963;50.184;9.162;2023-04-29T15:31:02;14.90;99.90
11812;DHT22;5963;50.184;9.162;2023-04-29T15:33:31;14.90;99.90
11812;DHT22;5963;50.184;9.162;2023-04-29T15:36:00;14.90;99.90
11812;DHT22;5963;50.184;9.162;2023-04-29T15:38:32;14.80;99.90
11812;DHT22;5963;50.184;9.162;2023-04-29T15:41:04;14.80;99.90
11812;DHT22;5963;50.184;9.162;2023-04-29T15:43:33;14.80;99.90
11812;DHT22;5963;50.184;9.162;2023-04-29T15:46:05;14.80;99.90
11812;DHT22;5963;50.184;9.162;2023-04-29T15:48:37;14.80;99.90
11812;DHT22;5963;50.184;9.162;2023-04-29T15:51:08;14.80;99.90
11812;DHT22;5963;50.184;9.162;2023-04-29T15:53:42;14.80;99.90
11812;DHT22;5963;50.184;9.162;2023-04-29T15:56:27;14.70;99.90
11812;DHT22;5963;50.184;9.162;2023-04-29T15:58:57;14.60;99.90
11812;DHT22;5963;50.184;9.162;2023-04-29T16:01:26;14.60;99.90
11812;DHT22;5963;50.184;9.162;2023-04-29T16:03:56;14.70;99.90